Time;durP1;ratioP1;P1;durP2;ratioP2;P2;SDS_P1;SDS_P2;PMS_P1;PMS_P2;Temp;Humidity;BMP_temperature;BMP_pressure;BME280_temperature;BME280_humidity;BME280_pressure;Samples;Min_cycle;Max_cycle;Signal;HPM_P1;HPM_P2
2022/01/29 00:02:28;;;;;;;10.10;3.87;;;;;;;;;;5019390;28;20231;-92
2022/01/29 00:04:57;;;;;;;2.27;2.07;;;;;;;;;;5018730;28;20214;-93
2022/01/29 00:07:25;;;;;;;10.47;3.53;;;;;;;;;;5019236;28;20217;-93
2022/01/29 00:10:01;;;;;;;12.57;4.87;;;;;;;;;;5018785;28;20190;-93
2022/01/29 00:12:30;;;;;;;11.53;5.67;;;;;;;;;;5019640;28;20200;-93
2022/01/29 00:15:00;;;;;;;13.43;5.27;;;;;;;;;;5018472;28;20233;-93
2022/01/29 00:17:29;;;;;;;6.00;3.37;;;;;;;;;;5018130;28;20246;-93
2022/01/29 00:19:57;;;;;;;4.87;2.93;;;;;;;;;;5018780;28;20205;-93
2022/01/29 00:22:26;;;;;;;16.90;6.33;;;;;;;;;;5019148;28;20223;-93
2022/01/29 00:24:56;;;;;;;17.67;5.47;;;;;;;;;;5018795;28;20232;-93
2022/01/29 00:27:27;;;;;;;10.80;5.57;;;;;;;;;;5018198;28;20206;-93
2022/01/29 00:29:58;;;;;;;16.53;4.70;;;;;;;;;;5017800;28;20201;-93
2022/01/29 00:32:29;;;;;;;14.80;5.80;;;;;;;;;;5018371;28;20202;-93
2022/01/29 00:34:57;;;;;;;5.63;4.90;;;;;;;;;;5017993;28;20234;-93
2022/01/29 00:37:26;;;;;;;16.03;5.40;;;;;;;;;;5017586;28;20205;-92
2022/01/29 00:39:54;;;;;;;6.23;3.63;;;;;;;;;;5017675;28;20213;-92
2022/01/29 00:42:25;;;;;;;7.47;4.53;;;;;;;;;;5017142;28;20212;-92
2022/01/29 00:44:54;;;;;;;12.10;2.70;;;;;;;;;;5018877;28;20228;-93
2022/01/29 00:47:23;;;;;;;15.23;7.07;;;;;;;;;;5017219;28;20207;-93
2022/01/29 00:49:53;;;;;;;18.60;7.80;;;;;;;;;;5016927;28;20208;-88
2022/01/29 00:52:21;;;;;;;21.33;9.20;;;;;;;;;;5015397;28;20267;-88
2022/01/29 00:54:50;;;;;;;17.87;7.50;;;;;;;;;;5015204;28;20221;-88
2022/01/29 00:57:18;;;;;;;12.90;7.90;;;;;;;;;;5015248;28;20267;-88
2022/01/29 00:59:47;;;;;;;15.10;7.37;;;;;;;;;;5015438;28;20209;-88
2022/01/29 01:02:16;;;;;;;14.30;7.83;;;;;;;;;;5015429;28;20209;-88
2022/01/29 01:04:44;;;;;;;16.50;7.17;;;;;;;;;;5015488;28;20211;-87
2022/01/29 01:07:14;;;;;;;18.23;9.43;;;;;;;;;;5015747;28;20221;-89
2022/01/29 01:09:43;;;;;;;20.03;10.03;;;;;;;;;;5015592;28;20201;-88
2022/01/29 01:12:11;;;;;;;16.17;6.57;;;;;;;;;;5015858;28;20208;-88
2022/01/29 01:14:40;;;;;;;15.77;8.67;;;;;;;;;;5015127;28;20213;-88
2022/01/29 01:17:09;;;;;;;14.33;5.90;;;;;;;;;;5015152;28;20241;-88
2022/01/29 01:19:37;;;;;;;11.70;5.23;;;;;;;;;;5014760;28;20217;-88
2022/01/29 01:22:06;;;;;;;21.27;9.30;;;;;;;;;;5015147;28;20238;-88
2022/01/29 01:24:36;;;;;;;17.10;7.07;;;;;;;;;;5015278;28;20301;-88
2022/01/29 01:27:04;;;;;;;6.80;3.40;;;;;;;;;;5015003;28;20205;-88
2022/01/29 01:29:33;;;;;;;30.13;9.57;;;;;;;;;;5014771;28;20203;-89
2022/01/29 01:32:02;;;;;;;14.57;6.87;;;;;;;;;;5015088;28;20212;-89
2022/01/29 01:34:34;;;;;;;8.97;4.77;;;;;;;;;;5014841;28;20236;-89
2022/01/29 01:37:08;;;;;;;15.80;7.87;;;;;;;;;;5014691;28;20274;-88
2022/01/29 01:39:40;;;;;;;24.70;10.87;;;;;;;;;;5015293;28;20232;-89
2022/01/29 01:42:08;;;;;;;20.27;8.73;;;;;;;;;;5015145;28;20282;-88
2022/01/29 01:44:38;;;;;;;17.07;8.63;;;;;;;;;;5014579;28;20216;-88
2022/01/29 01:47:07;;;;;;;12.33;7.67;;;;;;;;;;5015282;28;20213;-88
2022/01/29 01:49:36;;;;;;;21.40;10.30;;;;;;;;;;5014913;28;20290;-89
2022/01/29 01:52:06;;;;;;;15.07;9.63;;;;;;;;;;5014939;28;20216;-88
2022/01/29 01:54:34;;;;;;;13.93;9.07;;;;;;;;;;5014823;28;20216;-86
2022/01/29 01:57:05;;;;;;;22.33;9.87;;;;;;;;;;5014079;28;20236;-87
2022/01/29 01:59:34;;;;;;;20.20;12.00;;;;;;;;;;5016600;28;20260;-89
2022/01/29 02:02:03;;;;;;;15.53;9.07;;;;;;;;;;5018614;28;20265;-88
2022/01/29 02:04:33;;;;;;;21.67;10.33;;;;;;;;;;5018667;28;20214;-88
2022/01/29 02:07:02;;;;;;;14.43;9.50;;;;;;;;;;5019020;28;20214;-88
2022/01/29 02:09:32;;;;;;;17.77;10.20;;;;;;;;;;5018562;28;20268;-88
2022/01/29 02:12:02;;;;;;;12.03;9.10;;;;;;;;;;5018975;28;20242;-88
2022/01/29 02:14:34;;;;;;;23.83;12.57;;;;;;;;;;5018527;28;20217;-89
2022/01/29 02:17:04;;;;;;;18.30;10.87;;;;;;;;;;5018640;28;20244;-89
2022/01/29 02:19:34;;;;;;;20.80;8.03;;;;;;;;;;5018429;28;20206;-88
2022/01/29 02:22:04;;;;;;;14.83;9.23;;;;;;;;;;5018044;28;20210;-88
2022/01/29 02:24:33;;;;;;;14.37;9.30;;;;;;;;;;5018290;28;20206;-89
2022/01/29 02:27:01;;;;;;;14.27;9.73;;;;;;;;;;5018446;28;20256;-89
2022/01/29 02:29:30;;;;;;;13.83;9.77;;;;;;;;;;5018538;28;20236;-89
2022/01/29 02:31:59;;;;;;;21.53;8.73;;;;;;;;;;5018559;28;20214;-88
2022/01/29 02:34:31;;;;;;;12.37;6.07;;;;;;;;;;5017341;28;20210;-88
2022/01/29 02:37:00;;;;;;;19.07;10.60;;;;;;;;;;5017900;28;20227;-89
2022/01/29 02:39:30;;;;;;;15.80;6.20;;;;;;;;;;5018049;28;20230;-88
2022/01/29 02:41:59;;;;;;;20.87;9.73;;;;;;;;;;5018504;28;20210;-88
2022/01/29 02:44:28;;;;;;;28.03;13.53;;;;;;;;;;5018462;28;20211;-88
2022/01/29 02:47:13;;;;;;;19.97;11.00;;;;;;;;;;5017593;28;20226;-88
2022/01/29 02:49:41;;;;;;;16.43;9.33;;;;;;;;;;5017437;28;20211;-88
2022/01/29 02:52:10;;;;;;;18.63;9.50;;;;;;;;;;5017399;28;20209;-89
2022/01/29 02:54:40;;;;;;;18.20;9.07;;;;;;;;;;5017624;28;20210;-88
2022/01/29 02:57:09;;;;;;;11.20;5.73;;;;;;;;;;5017720;28;20230;-88
2022/01/29 02:59:37;;;;;;;20.93;12.63;;;;;;;;;;5017610;28;20214;-89
2022/01/29 03:02:06;;;;;;;18.90;7.47;;;;;;;;;;5017124;28;20263;-88
2022/01/29 03:04:35;;;;;;;16.03;8.90;;;;;;;;;;5017511;28;20210;-88
2022/01/29 03:07:04;;;;;;;11.03;6.93;;;;;;;;;;5017076;28;20201;-88
2022/01/29 03:09:32;;;;;;;10.33;6.80;;;;;;;;;;5017198;28;20271;-89
2022/01/29 03:12:02;;;;;;;17.70;9.17;;;;;;;;;;5017064;28;20260;-88
2022/01/29 03:14:31;;;;;;;11.87;6.97;;;;;;;;;;5017153;28;20238;-89
2022/01/29 03:16:59;;;;;;;23.70;9.87;;;;;;;;;;5017114;28;20233;-89
2022/01/29 03:19:28;;;;;;;18.53;6.73;;;;;;;;;;5016700;28;20260;-89
2022/01/29 03:21:56;;;;;;;15.73;9.30;;;;;;;;;;5017300;28;20237;-88
2022/01/29 03:24:25;;;;;;;13.53;9.07;;;;;;;;;;5017004;28;20208;-88
2022/01/29 03:26:54;;;;;;;27.43;11.87;;;;;;;;;;5017291;28;20199;-89
2022/01/29 03:29:24;;;;;;;15.73;7.90;;;;;;;;;;5016828;28;20213;-88
2022/01/29 03:31:52;;;;;;;16.97;6.17;;;;;;;;;;5016853;28;20208;-89
2022/01/29 03:34:21;;;;;;;13.27;7.67;;;;;;;;;;5017143;28;20211;-88
2022/01/29 03:36:50;;;;;;;14.13;7.23;;;;;;;;;;5017061;28;20223;-87
2022/01/29 03:39:19;;;;;;;10.83;7.70;;;;;;;;;;5016594;28;20275;-88
2022/01/29 03:41:47;;;;;;;18.50;7.90;;;;;;;;;;5016608;28;20203;-88
2022/01/29 03:44:16;;;;;;;28.07;5.77;;;;;;;;;;5016919;28;20204;-88
2022/01/29 03:46:47;;;;;;;16.80;8.63;;;;;;;;;;5016779;28;20211;-88
2022/01/29 03:49:16;;;;;;;8.40;5.73;;;;;;;;;;5016893;28;20238;-89
2022/01/29 03:51:44;;;;;;;20.90;10.03;;;;;;;;;;5016584;28;20217;-89
2022/01/29 03:54:13;;;;;;;9.47;6.17;;;;;;;;;;5016393;28;20216;-88
2022/01/29 03:56:41;;;;;;;10.80;6.63;;;;;;;;;;5016555;28;20231;-88
2022/01/29 03:59:10;;;;;;;19.90;10.13;;;;;;;;;;5016006;28;20211;-88
2022/01/29 04:01:39;;;;;;;14.47;6.60;;;;;;;;;;5016277;28;20217;-88
2022/01/29 04:04:09;;;;;;;14.43;9.13;;;;;;;;;;5016386;28;20234;-88
2022/01/29 04:06:38;;;;;;;26.43;7.00;;;;;;;;;;5016627;28;20215;-89
2022/01/29 04:09:10;;;;;;;23.37;9.70;;;;;;;;;;5016102;28;20210;-88
2022/01/29 04:11:39;;;;;;;10.77;6.93;;;;;;;;;;5016272;28;20204;-89
2022/01/29 04:14:15;;;;;;;23.10;11.03;;;;;;;;;;5016246;28;20210;-88
2022/01/29 04:16:43;;;;;;;15.67;7.97;;;;;;;;;;5016235;28;20242;-88
2022/01/29 04:19:14;;;;;;;12.87;6.97;;;;;;;;;;5016324;28;20269;-88
2022/01/29 04:21:42;;;;;;;12.83;7.60;;;;;;;;;;5016252;28;20221;-88
2022/01/29 04:24:11;;;;;;;13.80;7.47;;;;;;;;;;5015140;28;20207;-88
2022/01/29 04:26:39;;;;;;;16.90;6.80;;;;;;;;;;5016352;28;20217;-88
2022/01/29 04:29:08;;;;;;;14.53;5.97;;;;;;;;;;5015870;28;20209;-88
2022/01/29 04:31:44;;;;;;;16.23;9.03;;;;;;;;;;5015799;28;20211;-88
2022/01/29 04:34:14;;;;;;;13.57;7.17;;;;;;;;;;5015846;28;20260;-88
2022/01/29 04:36:42;;;;;;;15.67;6.50;;;;;;;;;;5015947;28;20241;-88
2022/01/29 04:39:11;;;;;;;10.33;4.70;;;;;;;;;;5016180;28;20229;-88
2022/01/29 04:41:39;;;;;;;10.27;4.67;;;;;;;;;;5015746;28;20203;-88
2022/01/29 04:44:08;;;;;;;7.73;3.97;;;;;;;;;;5015566;28;20211;-87
2022/01/29 04:46:36;;;;;;;12.17;5.13;;;;;;;;;;5016036;28;20209;-88
2022/01/29 04:49:05;;;;;;;6.07;4.53;;;;;;;;;;5015422;28;20217;-88
2022/01/29 04:51:35;;;;;;;8.43;4.93;;;;;;;;;;5015847;28;20269;-88
2022/01/29 04:54:06;;;;;;;12.53;6.70;;;;;;;;;;5014917;28;20257;-88
2022/01/29 04:56:35;;;;;;;13.10;7.00;;;;;;;;;;5015363;28;20229;-88
2022/01/29 04:59:03;;;;;;;12.27;7.37;;;;;;;;;;5014906;28;20255;-86
2022/01/29 05:01:32;;;;;;;13.30;5.07;;;;;;;;;;5015173;28;20207;-88
2022/01/29 05:04:00;;;;;;;22.30;9.40;;;;;;;;;;5015069;28;20230;-88
2022/01/29 05:06:29;;;;;;;8.63;5.03;;;;;;;;;;5015567;28;20211;-89
2022/01/29 05:08:59;;;;;;;11.57;7.10;;;;;;;;;;5014968;28;20201;-89
2022/01/29 05:11:28;;;;;;;10.50;5.13;;;;;;;;;;5015272;28;20213;-88
2022/01/29 05:13:57;;;;;;;8.43;5.53;;;;;;;;;;5015347;28;20236;-89
2022/01/29 05:16:37;;;;;;;8.20;4.63;;;;;;;;;;5015272;28;20245;-89
2022/01/29 05:27:26;;;;;;;12.23;6.63;;;;;;;;;;5015458;28;20205;-88
2022/01/29 05:29:55;;;;;;;14.80;6.27;;;;;;;;;;5015131;28;20213;-88
2022/01/29 05:32:23;;;;;;;7.67;2.57;;;;;;;;;;5015198;28;20210;-87
2022/01/29 05:34:52;;;;;;;17.67;7.30;;;;;;;;;;5014600;28;20215;-87
2022/01/29 05:37:40;;;;;;;15.50;4.63;;;;;;;;;;5015132;28;20249;-88
2022/01/29 05:40:11;;;;;;;14.77;6.13;;;;;;;;;;5015098;28;20274;-88
2022/01/29 05:42:39;;;;;;;27.17;5.90;;;;;;;;;;5014646;28;20213;-89
2022/01/29 05:45:08;;;;;;;14.27;6.03;;;;;;;;;;5014574;28;20219;-88
2022/01/29 05:47:37;;;;;;;10.13;4.53;;;;;;;;;;5014111;28;20249;-88
2022/01/29 05:50:06;;;;;;;7.50;4.83;;;;;;;;;;5014974;28;20210;-88
2022/01/29 05:52:34;;;;;;;11.77;4.67;;;;;;;;;;5014886;28;20223;-88
2022/01/29 05:55:05;;;;;;;13.53;6.20;;;;;;;;;;5014759;28;20290;-89
2022/01/29 05:57:35;;;;;;;18.20;5.53;;;;;;;;;;5014957;28;20208;-88
2022/01/29 06:00:04;;;;;;;7.90;4.10;;;;;;;;;;5015519;28;20211;-88
2022/01/29 06:02:32;;;;;;;5.87;3.87;;;;;;;;;;5014359;28;20226;-88
2022/01/29 06:05:01;;;;;;;18.97;5.40;;;;;;;;;;5014417;28;20214;-88
2022/01/29 06:07:30;;;;;;;15.30;5.53;;;;;;;;;;5014660;28;20207;-88
2022/01/29 06:09:58;;;;;;;11.37;5.73;;;;;;;;;;5014641;28;20253;-90
2022/01/29 06:12:36;;;;;;;14.40;4.43;;;;;;;;;;5014651;28;20207;-88
2022/01/29 06:15:05;;;;;;;12.67;4.67;;;;;;;;;;5014199;28;20219;-89
2022/01/29 06:17:34;;;;;;;5.77;3.37;;;;;;;;;;5014405;28;20250;-89
2022/01/29 06:20:02;;;;;;;10.13;5.40;;;;;;;;;;5014705;28;20203;-88
2022/01/29 06:22:32;;;;;;;17.10;5.83;;;;;;;;;;5014653;28;20207;-89
2022/01/29 06:25:01;;;;;;;15.03;5.20;;;;;;;;;;5014468;28;20203;-88
2022/01/29 06:27:29;;;;;;;11.70;5.53;;;;;;;;;;5014426;28;20280;-89
2022/01/29 06:29:59;;;;;;;20.17;8.97;;;;;;;;;;5014848;28;20199;-88
2022/01/29 06:32:28;;;;;;;15.90;9.47;;;;;;;;;;5014667;28;20211;-89
2022/01/29 06:34:57;;;;;;;17.97;8.77;;;;;;;;;;5014905;28;20210;-89
2022/01/29 06:37:26;;;;;;;14.60;5.80;;;;;;;;;;5014449;28;20204;-88
2022/01/29 06:39:54;;;;;;;11.97;6.03;;;;;;;;;;5014328;28;20318;-89
2022/01/29 06:42:23;;;;;;;15.77;6.07;;;;;;;;;;5014159;28;20214;-88
2022/01/29 06:44:51;;;;;;;17.97;9.07;;;;;;;;;;5015023;28;20206;-88
2022/01/29 06:47:21;;;;;;;12.47;7.17;;;;;;;;;;5017092;28;20215;-88
2022/01/29 06:49:50;;;;;;;26.37;12.73;;;;;;;;;;5017509;28;20202;-88
2022/01/29 06:52:19;;;;;;;13.23;7.17;;;;;;;;;;5017292;28;20222;-88
2022/01/29 06:54:47;;;;;;;15.17;8.30;;;;;;;;;;5017545;28;20231;-88
2022/01/29 06:57:16;;;;;;;12.03;6.60;;;;;;;;;;5017536;28;20282;-89
2022/01/29 06:59:44;;;;;;;23.10;8.50;;;;;;;;;;5017393;28;20251;-88
2022/01/29 07:02:13;;;;;;;11.70;5.07;;;;;;;;;;5017339;28;20286;-88
2022/01/29 07:04:43;;;;;;;10.57;5.03;;;;;;;;;;5017497;28;20222;-87
2022/01/29 07:07:11;;;;;;;10.93;5.83;;;;;;;;;;5017338;28;20256;-88
2022/01/29 07:09:40;;;;;;;16.37;4.97;;;;;;;;;;5017047;28;20211;-88
2022/01/29 07:12:10;;;;;;;8.83;4.60;;;;;;;;;;5016803;28;20215;-88
2022/01/29 07:14:41;;;;;;;16.70;5.77;;;;;;;;;;5017276;28;20309;-88
2022/01/29 07:17:11;;;;;;;6.20;5.23;;;;;;;;;;5016830;28;20242;-88
2022/01/29 07:19:40;;;;;;;9.70;3.73;;;;;;;;;;5017027;28;20239;-88
2022/01/29 07:22:10;;;;;;;11.03;5.17;;;;;;;;;;5017423;28;20243;-89
2022/01/29 07:24:39;;;;;;;9.80;4.77;;;;;;;;;;5017176;28;20280;-89
2022/01/29 07:27:08;;;;;;;5.70;4.00;;;;;;;;;;5016981;28;20207;-89
2022/01/29 07:29:36;;;;;;;18.80;3.80;;;;;;;;;;5017179;28;20203;-88
2022/01/29 07:32:05;;;;;;;3.63;3.03;;;;;;;;;;5017158;28;20222;-88
2022/01/29 07:34:34;;;;;;;7.73;3.80;;;;;;;;;;5016897;28;20234;-88
2022/01/29 07:37:03;;;;;;;8.67;2.63;;;;;;;;;;5017051;28;20203;-88
2022/01/29 07:39:33;;;;;;;6.23;2.83;;;;;;;;;;5016572;28;20273;-88
2022/01/29 07:42:02;;;;;;;8.63;3.50;;;;;;;;;;5016944;28;20265;-89
2022/01/29 07:44:30;;;;;;;7.87;2.73;;;;;;;;;;5016930;28;20231;-88
2022/01/29 07:46:59;;;;;;;18.40;3.00;;;;;;;;;;5016409;28;20212;-88
2022/01/29 07:49:27;;;;;;;11.30;4.77;;;;;;;;;;5016522;28;20200;-89
2022/01/29 07:51:56;;;;;;;8.77;3.90;;;;;;;;;;5016995;28;20259;-88
2022/01/29 07:54:24;;;;;;;5.60;3.00;;;;;;;;;;5016721;28;20552;-88
2022/01/29 07:56:54;;;;;;;10.07;5.33;;;;;;;;;;5016329;28;20222;-89
2022/01/29 07:59:23;;;;;;;8.57;3.37;;;;;;;;;;5016472;28;20216;-88
2022/01/29 08:01:51;;;;;;;4.13;2.37;;;;;;;;;;5016672;28;20295;-88
2022/01/29 08:04:23;;;;;;;5.03;2.97;;;;;;;;;;5016540;28;20227;-87
2022/01/29 08:06:51;;;;;;;9.20;3.23;;;;;;;;;;5016218;28;20246;-88
2022/01/29 08:09:20;;;;;;;20.03;6.53;;;;;;;;;;5016421;28;20238;-88
2022/01/29 08:11:48;;;;;;;8.37;3.80;;;;;;;;;;5016317;28;20245;-88
2022/01/29 08:14:18;;;;;;;8.20;3.20;;;;;;;;;;5016553;28;20212;-88
2022/01/29 08:16:47;;;;;;;10.70;4.67;;;;;;;;;;5016303;28;20365;-89
2022/01/29 08:19:16;;;;;;;8.87;3.60;;;;;;;;;;5016023;28;20318;-89
2022/01/29 08:21:44;;;;;;;6.60;3.40;;;;;;;;;;5016547;28;20246;-88
2022/01/29 08:24:13;;;;;;;9.20;4.47;;;;;;;;;;5016197;28;20216;-88
2022/01/29 08:26:41;;;;;;;15.13;3.77;;;;;;;;;;5016358;28;20212;-88
2022/01/29 08:29:16;;;;;;;8.50;3.10;;;;;;;;;;5016356;28;20242;-86
2022/01/29 08:32:11;;;;;;;13.90;5.13;;;;;;;;;;5016724;28;20214;-88
2022/01/29 08:35:01;;;;;;;18.53;4.23;;;;;;;;;;5015872;28;20257;-88
2022/01/29 08:41:03;;;;;;;17.20;4.97;;;;;;;;;;4960019;28;20235;-88
2022/01/29 08:47:17;;;;;;;10.37;3.33;;;;;;;;;;5015769;28;20273;-88
2022/01/29 08:50:04;;;;;;;6.97;2.43;;;;;;;;;;5015856;28;20286;-88
2022/01/29 08:52:47;;;;;;;9.93;3.50;;;;;;;;;;5015761;28;20202;-88
2022/01/29 08:55:40;;;;;;;6.57;2.47;;;;;;;;;;5015144;28;20207;-88
2022/01/29 08:58:30;;;;;;;9.87;3.67;;;;;;;;;;5015509;28;20208;-88
2022/01/29 09:01:21;;;;;;;8.97;3.47;;;;;;;;;;5015167;28;20233;-89
2022/01/29 09:04:26;;;;;;;9.70;5.00;;;;;;;;;;5009525;28;20231;-88
2022/01/29 09:07:23;;;;;;;11.67;5.37;;;;;;;;;;5015061;28;20203;-88
2022/01/29 09:10:04;;;;;;;14.70;5.97;;;;;;;;;;5014995;28;20260;-88
2022/01/29 09:12:52;;;;;;;11.20;4.77;;;;;;;;;;5015024;28;20277;-88
2022/01/29 09:15:40;;;;;;;17.33;6.40;;;;;;;;;;5014920;28;20210;-88
2022/01/29 09:18:57;;;;;;;13.63;5.37;;;;;;;;;;5008264;28;20249;-89
2022/01/29 09:21:46;;;;;;;11.73;4.57;;;;;;;;;;5014622;28;20218;-88
2022/01/29 09:24:40;;;;;;;8.50;6.97;;;;;;;;;;5015316;28;20205;-89
2022/01/29 09:34:23;;;;;;;;;;;;;;;;;;;;;
2022/01/29 09:37:25;;;;;;;10.93;6.07;;;;;;;;;;5014141;28;20211;-89
2022/01/29 09:40:55;;;;;;;13.27;3.87;;;;;;;;;;5014301;28;20281;-89
2022/01/29 09:44:04;;;;;;;15.90;5.03;;;;;;;;;;4954699;29;20214;-88
2022/01/29 09:47:37;;;;;;;11.70;5.30;;;;;;;;;;4937775;29;20214;-89
2022/01/29 09:50:20;;;;;;;16.43;5.63;;;;;;;;;;4944680;29;20205;-88
2022/01/29 09:52:48;;;;;;;17.97;6.30;;;;;;;;;;4954886;29;20213;-89
2022/01/29 09:55:17;;;;;;;10.07;6.00;;;;;;;;;;4954752;29;20265;-89
2022/01/29 09:57:46;;;;;;;14.63;4.93;;;;;;;;;;4954736;29;20216;-88
2022/01/29 10:00:16;;;;;;;12.00;5.57;;;;;;;;;;4954356;29;20234;-88
2022/01/29 10:02:45;;;;;;;14.97;5.37;;;;;;;;;;4954751;29;20225;-89
2022/01/29 10:05:14;;;;;;;18.37;7.23;;;;;;;;;;4954816;29;20206;-88
2022/01/29 10:07:42;;;;;;;11.97;4.87;;;;;;;;;;4954517;29;20210;-89
2022/01/29 10:10:18;;;;;;;18.47;6.50;;;;;;;;;;4954753;29;20253;-89
2022/01/29 10:12:47;;;;;;;9.20;2.70;;;;;;;;;;4954582;29;20209;-89
2022/01/29 10:15:17;;;;;;;6.37;2.53;;;;;;;;;;4954426;29;20302;-89
2022/01/29 10:17:47;;;;;;;11.97;3.90;;;;;;;;;;4954129;29;20238;-86
2022/01/29 10:20:17;;;;;;;23.50;5.20;;;;;;;;;;4965753;28;20266;-88
2022/01/29 10:22:46;;;;;;;14.93;6.23;;;;;;;;;;5018633;28;20258;-88
2022/01/29 10:25:16;;;;;;;6.00;3.43;;;;;;;;;;5018684;28;20270;-89
2022/01/29 10:28:09;;;;;;;10.47;3.00;;;;;;;;;;5018613;28;20219;-89
2022/01/29 10:30:40;;;;;;;13.80;4.77;;;;;;;;;;4999442;28;20195;-89
2022/01/29 10:33:19;;;;;;;10.37;5.00;;;;;;;;;;5018501;28;20266;-88
2022/01/29 10:35:48;;;;;;;14.80;3.17;;;;;;;;;;5018433;28;20191;-89
2022/01/29 10:38:19;;;;;;;14.37;5.43;;;;;;;;;;5018660;28;20211;-89
2022/01/29 10:40:48;;;;;;;7.30;3.67;;;;;;;;;;5017844;28;20231;-88
2022/01/29 10:43:17;;;;;;;8.93;4.67;;;;;;;;;;5018317;28;20212;-88
2022/01/29 10:45:47;;;;;;;14.23;5.77;;;;;;;;;;5018112;28;20299;-88
2022/01/29 10:48:15;;;;;;;15.67;5.23;;;;;;;;;;5018412;28;20206;-88
2022/01/29 10:50:44;;;;;;;8.97;4.10;;;;;;;;;;5017729;28;20250;-89
2022/01/29 10:53:25;;;;;;;10.70;5.43;;;;;;;;;;5018039;28;20219;-88
2022/01/29 10:56:00;;;;;;;7.87;2.23;;;;;;;;;;5018000;28;20257;-89
2022/01/29 10:58:29;;;;;;;14.60;4.10;;;;;;;;;;5017760;28;20234;-89
2022/01/29 11:01:14;;;;;;;10.30;4.07;;;;;;;;;;5017530;28;20287;-88
2022/01/29 11:03:43;;;;;;;7.93;3.13;;;;;;;;;;5017884;28;20243;-89
2022/01/29 11:06:13;;;;;;;16.47;3.20;;;;;;;;;;5017524;28;20204;-88
2022/01/29 11:08:42;;;;;;;14.10;4.47;;;;;;;;;;5017106;28;20219;-88
2022/01/29 11:11:12;;;;;;;12.03;4.33;;;;;;;;;;5016934;28;20200;-89
2022/01/29 11:14:00;;;;;;;12.33;3.50;;;;;;;;;;5017774;28;20214;-88
2022/01/29 11:16:30;;;;;;;5.43;2.40;;;;;;;;;;5017175;28;20243;-88
2022/01/29 11:19:00;;;;;;;15.73;5.43;;;;;;;;;;5017315;28;20244;-89
2022/01/29 11:21:30;;;;;;;25.03;5.53;;;;;;;;;;5017376;28;20246;-88
2022/01/29 11:23:59;;;;;;;3.97;2.20;;;;;;;;;;5017916;28;20300;-89
2022/01/29 11:26:30;;;;;;;13.00;5.20;;;;;;;;;;5017679;28;20262;-89
2022/01/29 11:29:14;;;;;;;13.77;5.47;;;;;;;;;;5017692;28;20204;-89
2022/01/29 11:31:44;;;;;;;16.27;4.53;;;;;;;;;;5016147;28;20235;-88
2022/01/29 11:34:25;;;;;;;17.03;4.13;;;;;;;;;;5017230;28;20207;-89
2022/01/29 11:37:07;;;;;;;11.33;3.77;;;;;;;;;;5016942;28;20207;-89
2022/01/29 11:39:36;;;;;;;28.83;4.80;;;;;;;;;;5017821;28;20219;-89
2022/01/29 11:42:23;;;;;;;13.03;4.03;;;;;;;;;;5017196;28;20242;-88
2022/01/29 11:44:52;;;;;;;11.83;3.03;;;;;;;;;;5017540;28;20211;-89
2022/01/29 11:47:42;;;;;;;13.73;4.93;;;;;;;;;;5017441;28;20212;-89
2022/01/29 11:50:29;;;;;;;18.87;5.20;;;;;;;;;;5010677;28;20231;-89
2022/01/29 11:53:00;;;;;;;10.23;4.07;;;;;;;;;;5017279;28;20338;-89
2022/01/29 11:55:34;;;;;;;7.47;2.87;;;;;;;;;;5017040;28;20220;-89
2022/01/29 11:58:23;;;;;;;12.50;4.87;;;;;;;;;;5017245;28;20203;-88
2022/01/29 12:00:52;;;;;;;8.37;4.10;;;;;;;;;;5016819;28;20238;-88
2022/01/29 12:03:42;;;;;;;11.37;4.13;;;;;;;;;;5016506;28;20239;-89
2022/01/29 12:06:14;;;;;;;13.73;5.03;;;;;;;;;;5016372;28;20289;-88
2022/01/29 12:09:05;;;;;;;11.00;4.00;;;;;;;;;;5017039;28;20207;-89
2022/01/29 12:11:37;;;;;;;10.67;4.23;;;;;;;;;;5011084;28;20203;-89
2022/01/29 12:14:25;;;;;;;18.33;5.23;;;;;;;;;;5016711;28;20261;-89
2022/01/29 12:16:55;;;;;;;11.63;3.97;;;;;;;;;;5016238;28;20238;-89
2022/01/29 12:19:36;;;;;;;8.83;3.37;;;;;;;;;;5016163;28;20254;-89
2022/01/29 12:22:10;;;;;;;11.83;3.93;;;;;;;;;;5016168;28;20223;-89
2022/01/29 12:24:38;;;;;;;11.33;3.60;;;;;;;;;;5016163;28;20223;-89
2022/01/29 12:27:09;;;;;;;4.63;3.50;;;;;;;;;;5015966;28;20262;-89
2022/01/29 12:29:37;;;;;;;10.03;3.83;;;;;;;;;;5016149;28;20226;-88
2022/01/29 12:32:06;;;;;;;11.40;5.50;;;;;;;;;;5016295;28;20211;-89
2022/01/29 12:34:39;;;;;;;11.10;5.57;;;;;;;;;;5016208;28;20210;-89
2022/01/29 12:37:09;;;;;;;7.53;4.10;;;;;;;;;;5015892;28;20212;-89
2022/01/29 12:39:38;;;;;;;17.40;7.03;;;;;;;;;;5016054;28;20208;-89
2022/01/29 12:42:16;;;;;;;11.80;4.87;;;;;;;;;;5015282;28;20281;-89
2022/01/29 12:44:57;;;;;;;8.73;3.17;;;;;;;;;;5015040;28;20214;-89
2022/01/29 12:47:27;;;;;;;17.63;4.20;;;;;;;;;;5016366;28;20212;-89
2022/01/29 12:49:56;;;;;;;7.43;3.70;;;;;;;;;;5016250;28;20199;-94
2022/01/29 12:52:25;;;;;;;14.63;5.57;;;;;;;;;;5017287;28;20224;-94
2022/01/29 12:54:55;;;;;;;10.93;4.30;;;;;;;;;;5017907;28;20258;-94
2022/01/29 12:57:23;;;;;;;7.50;3.70;;;;;;;;;;5016933;28;20219;-94
2022/01/29 12:59:54;;;;;;;12.87;4.20;;;;;;;;;;5016825;28;20250;-94
2022/01/29 13:02:38;;;;;;;12.10;3.87;;;;;;;;;;5016501;28;20293;-94
2022/01/29 13:05:08;;;;;;;9.97;4.37;;;;;;;;;;5017018;28;20204;-94
2022/01/29 13:07:37;;;;;;;13.33;7.03;;;;;;;;;;5016585;28;20211;-94
2022/01/29 13:10:06;;;;;;;13.87;7.50;;;;;;;;;;5016491;28;20291;-94
2022/01/29 13:12:38;;;;;;;16.57;5.77;;;;;;;;;;5016634;28;20212;-94
2022/01/29 13:15:10;;;;;;;7.20;3.20;;;;;;;;;;5016510;28;20262;-94
2022/01/29 13:17:42;;;;;;;21.67;4.83;;;;;;;;;;5015961;28;20235;-93
2022/01/29 13:20:12;;;;;;;7.37;3.27;;;;;;;;;;5016707;28;20207;-94
2022/01/29 13:22:42;;;;;;;10.87;4.80;;;;;;;;;;5016233;28;20227;-93
2022/01/29 13:25:12;;;;;;;11.17;5.43;;;;;;;;;;5016604;28;20210;-94
2022/01/29 13:27:42;;;;;;;10.60;3.30;;;;;;;;;;5016268;28;20204;-94
2022/01/29 13:30:19;;;;;;;12.00;4.43;;;;;;;;;;5016726;28;20196;-94
2022/01/29 13:32:49;;;;;;;16.60;5.10;;;;;;;;;;5016954;28;20187;-94
2022/01/29 13:35:21;;;;;;;9.83;4.57;;;;;;;;;;5016003;28;20203;-93
2022/01/29 13:37:49;;;;;;;4.13;2.73;;;;;;;;;;5016518;28;20231;-94
2022/01/29 13:40:20;;;;;;;12.40;4.07;;;;;;;;;;5015763;28;20214;-94
2022/01/29 13:42:55;;;;;;;12.80;3.77;;;;;;;;;;5016356;28;20231;-93
2022/01/29 13:45:26;;;;;;;10.17;3.63;;;;;;;;;;5015037;28;20203;-94
2022/01/29 13:48:02;;;;;;;12.00;3.10;;;;;;;;;;5016452;28;20208;-94
2022/01/29 13:50:32;;;;;;;10.07;2.93;;;;;;;;;;5015315;28;20211;-94
2022/01/29 13:53:01;;;;;;;10.07;3.90;;;;;;;;;;5016179;28;20268;-94
2022/01/29 13:55:30;;;;;;;8.80;2.87;;;;;;;;;;5017742;28;20210;-94
2022/01/29 13:57:59;;;;;;;8.97;3.27;;;;;;;;;;5019684;28;20215;-94
2022/01/29 14:00:29;;;;;;;8.00;3.83;;;;;;;;;;5019352;28;20207;-94
2022/01/29 14:02:58;;;;;;;12.67;3.87;;;;;;;;;;5020159;28;20235;-94
2022/01/29 14:05:29;;;;;;;9.13;3.23;;;;;;;;;;5019951;28;20208;-93
2022/01/29 14:08:12;;;;;;;14.13;3.17;;;;;;;;;;5020068;28;20208;-94
2022/01/29 14:10:41;;;;;;;24.67;5.53;;;;;;;;;;5019348;28;20247;-93
2022/01/29 14:13:10;;;;;;;8.90;3.53;;;;;;;;;;5019843;28;20239;-93
2022/01/29 14:15:40;;;;;;;5.27;2.50;;;;;;;;;;5019715;28;20207;-93
2022/01/29 14:18:09;;;;;;;11.10;3.60;;;;;;;;;;5019250;28;20245;-94
2022/01/29 14:20:37;;;;;;;6.20;2.83;;;;;;;;;;5019779;28;20204;-94
2022/01/29 14:23:06;;;;;;;6.27;3.30;;;;;;;;;;5019343;28;20223;-93
2022/01/29 14:25:35;;;;;;;11.20;4.30;;;;;;;;;;5019706;28;20214;-94
2022/01/29 14:28:03;;;;;;;10.47;3.33;;;;;;;;;;5019533;28;20265;-94
2022/01/29 14:30:32;;;;;;;13.80;3.93;;;;;;;;;;5019550;28;20208;-94
2022/01/29 14:33:02;;;;;;;8.23;2.80;;;;;;;;;;5018769;28;20262;-93
2022/01/29 14:35:31;;;;;;;13.43;4.97;;;;;;;;;;5018881;28;20258;-94
2022/01/29 14:37:59;;;;;;;10.17;4.37;;;;;;;;;;5019319;28;20230;-92
2022/01/29 14:40:33;;;;;;;12.90;4.43;;;;;;;;;;5019690;28;20203;-93
2022/01/29 14:43:01;;;;;;;12.43;3.70;;;;;;;;;;5019143;28;20231;-94
2022/01/29 14:45:30;;;;;;;23.50;7.30;;;;;;;;;;5019532;28;20301;-93
2022/01/29 14:47:59;;;;;;;7.83;4.37;;;;;;;;;;5019020;28;20211;-93
2022/01/29 14:50:29;;;;;;;21.67;6.90;;;;;;;;;;5019059;28;20567;-93
2022/01/29 14:52:58;;;;;;;12.03;2.20;;;;;;;;;;5018573;28;20207;-93
2022/01/29 14:55:27;;;;;;;8.70;2.90;;;;;;;;;;5019933;28;20208;-93
2022/01/29 14:57:55;;;;;;;6.57;4.10;;;;;;;;;;5019210;28;20211;-93
2022/01/29 15:00:24;;;;;;;12.63;3.50;;;;;;;;;;5018693;28;20219;-94
2022/01/29 15:02:53;;;;;;;13.93;3.37;;;;;;;;;;5018435;28;20238;-94
2022/01/29 15:05:22;;;;;;;11.80;3.37;;;;;;;;;;5018619;28;20207;-93
2022/01/29 15:07:52;;;;;;;9.30;4.10;;;;;;;;;;5018074;28;20204;-94
2022/01/29 15:10:25;;;;;;;8.67;3.93;;;;;;;;;;5018090;28;20213;-94
2022/01/29 15:12:53;;;;;;;10.20;4.80;;;;;;;;;;5019121;28;20210;-92
2022/01/29 15:15:22;;;;;;;10.83;2.50;;;;;;;;;;5018265;28;20203;-93
2022/01/29 15:17:51;;;;;;;13.23;3.53;;;;;;;;;;5018367;28;20334;-93
2022/01/29 15:20:39;;;;;;;10.10;3.80;;;;;;;;;;5018746;28;20239;-93
2022/01/29 15:23:11;;;;;;;8.80;3.80;;;;;;;;;;5018319;28;20240;-93
2022/01/29 15:25:45;;;;;;;12.50;3.80;;;;;;;;;;5018561;28;20258;-93